sensor_id;sensor_type;location;lat;lon;timestamp;temperature;humidity
67586;SHT31;55785;47.946;20.540;2023-12-22T00:02:08;4.81;92.43
67586;SHT31;55785;47.946;20.540;2023-12-22T00:04:33;4.86;92.37
67586;SHT31;55785;47.946;20.540;2023-12-22T00:06:59;4.83;92.53
67586;SHT31;55785;47.946;20.540;2023-12-22T00:09:24;4.77;92.57
67586;SHT31;55785;47.946;20.540;2023-12-22T00:11:49;4.79;92.61
67586;SHT31;55785;47.946;20.540;2023-12-22T00:14:15;4.80;92.59
67586;SHT31;55785;47.946;20.540;2023-12-22T00:16:40;4.83;92.61
67586;SHT31;55785;47.946;20.540;2023-12-22T00:19:06;4.84;92.67
67586;SHT31;55785;47.946;20.540;2023-12-22T00:21:31;4.87;92.42
67586;SHT31;55785;47.946;20.540;2023-12-22T00:23:56;4.88;92.43
67586;SHT31;55785;47.946;20.540;2023-12-22T00:26:22;4.93;92.38
67586;SHT31;55785;47.946;20.540;2023-12-22T00:28:47;4.91;92.30
67586;SHT31;55785;47.946;20.540;2023-12-22T00:31:13;4.93;92.39
67586;SHT31;55785;47.946;20.540;2023-12-22T00:33:38;4.94;92.45
67586;SHT31;55785;47.946;20.540;2023-12-22T00:36:04;5.00;92.39
67586;SHT31;55785;47.946;20.540;2023-12-22T00:38:29;4.95;92.38
67586;SHT31;55785;47.946;20.540;2023-12-22T00:40:55;4.98;92.44
67586;SHT31;55785;47.946;20.540;2023-12-22T00:43:20;5.01;92.46
67586;SHT31;55785;47.946;20.540;2023-12-22T00:45:46;5.04;92.37
67586;SHT31;55785;47.946;20.540;2023-12-22T00:48:11;5.00;92.32
67586;SHT31;55785;47.946;20.540;2023-12-22T00:50:36;5.00;92.44
67586;SHT31;55785;47.946;20.540;2023-12-22T00:53:02;4.97;92.41
67586;SHT31;55785;47.946;20.540;2023-12-22T00:55:27;4.93;92.59
67586;SHT31;55785;47.946;20.540;2023-12-22T00:57:52;4.95;92.59
67586;SHT31;55785;47.946;20.540;2023-12-22T01:00:18;5.00;92.55
67586;SHT31;55785;47.946;20.540;2023-12-22T01:02:43;5.04;92.45
67586;SHT31;55785;47.946;20.540;2023-12-22T01:05:09;5.11;92.26
67586;SHT31;55785;47.946;20.540;2023-12-22T01:07:34;5.13;92.22
67586;SHT31;55785;47.946;20.540;2023-12-22T01:10:00;5.14;92.14
67586;SHT31;55785;47.946;20.540;2023-12-22T01:12:25;5.07;92.27
67586;SHT31;55785;47.946;20.540;2023-12-22T01:14:50;4.98;92.29
67586;SHT31;55785;47.946;20.540;2023-12-22T01:17:16;5.01;92.30
67586;SHT31;55785;47.946;20.540;2023-12-22T01:19:41;5.00;92.34
67586;SHT31;55785;47.946;20.540;2023-12-22T01:22:06;5.00;92.45
67586;SHT31;55785;47.946;20.540;2023-12-22T01:24:32;4.98;92.43
67586;SHT31;55785;47.946;20.540;2023-12-22T01:26:57;4.98;92.39
67586;SHT31;55785;47.946;20.540;2023-12-22T01:29:22;5.04;92.50
67586;SHT31;55785;47.946;20.540;2023-12-22T01:31:48;5.00;92.53
67586;SHT31;55785;47.946;20.540;2023-12-22T01:34:13;5.05;92.46
67586;SHT31;55785;47.946;20.540;2023-12-22T01:36:38;5.10;92.37
67586;SHT31;55785;47.946;20.540;2023-12-22T01:39:04;5.01;92.41
67586;SHT31;55785;47.946;20.540;2023-12-22T01:41:29;5.03;92.27
67586;SHT31;55785;47.946;20.540;2023-12-22T01:43:54;5.04;92.35
67586;SHT31;55785;47.946;20.540;2023-12-22T01:46:20;5.03;92.25
67586;SHT31;55785;47.946;20.540;2023-12-22T01:48:46;5.01;92.32
67586;SHT31;55785;47.946;20.540;2023-12-22T01:51:12;5.03;92.24
67586;SHT31;55785;47.946;20.540;2023-12-22T01:53:37;5.05;92.28
67586;SHT31;55785;47.946;20.540;2023-12-22T01:56:03;5.07;92.22
67586;SHT31;55785;47.946;20.540;2023-12-22T01:58:30;5.05;92.18
67586;SHT31;55785;47.946;20.540;2023-12-22T02:00:58;5.05;92.20
67586;SHT31;55785;47.946;20.540;2023-12-22T02:03:23;5.07;92.15
67586;SHT31;55785;47.946;20.540;2023-12-22T02:05:49;5.07;92.16
67586;SHT31;55785;47.946;20.540;2023-12-22T02:08:17;5.13;91.94
67586;SHT31;55785;47.946;20.540;2023-12-22T02:10:43;5.21;91.68
67586;SHT31;55785;47.946;20.540;2023-12-22T02:13:08;5.32;91.03
67586;SHT31;55785;47.946;20.540;2023-12-22T02:15:34;5.46;90.44
67586;SHT31;55785;47.946;20.540;2023-12-22T02:18:16;5.62;89.94
67586;SHT31;55785;47.946;20.540;2023-12-22T02:20:44;6.17;87.00
67586;SHT31;55785;47.946;20.540;2023-12-22T02:23:10;6.40;85.98
67586;SHT31;55785;47.946;20.540;2023-12-22T02:25:35;6.40;85.66
67586;SHT31;55785;47.946;20.540;2023-12-22T02:28:07;6.51;84.95
67586;SHT31;55785;47.946;20.540;2023-12-22T02:30:39;6.53;84.54
67586;SHT31;55785;47.946;20.540;2023-12-22T02:33:08;6.62;83.76
67586;SHT31;55785;47.946;20.540;2023-12-22T02:35:38;6.64;83.79
67586;SHT31;55785;47.946;20.540;2023-12-22T02:38:06;6.64;83.39
67586;SHT31;55785;47.946;20.540;2023-12-22T02:40:33;6.55;82.81
67586;SHT31;55785;47.946;20.540;2023-12-22T02:42:59;6.53;83.26
67586;SHT31;55785;47.946;20.540;2023-12-22T02:45:26;6.52;82.99
67586;SHT31;55785;47.946;20.540;2023-12-22T02:47:51;6.55;82.50
67586;SHT31;55785;47.946;20.540;2023-12-22T02:50:17;6.58;82.50
67586;SHT31;55785;47.946;20.540;2023-12-22T02:52:42;6.56;81.77
67586;SHT31;55785;47.946;20.540;2023-12-22T02:55:08;6.58;81.94
67586;SHT31;55785;47.946;20.540;2023-12-22T02:57:33;6.48;82.55
67586;SHT31;55785;47.946;20.540;2023-12-22T02:59:59;6.46;81.74
67586;SHT31;55785;47.946;20.540;2023-12-22T03:02:24;6.48;81.40
67586;SHT31;55785;47.946;20.540;2023-12-22T03:04:50;6.51;80.38
67586;SHT31;55785;47.946;20.540;2023-12-22T03:07:15;6.52;80.62
67586;SHT31;55785;47.946;20.540;2023-12-22T03:09:44;6.53;80.09
67586;SHT31;55785;47.946;20.540;2023-12-22T03:12:10;6.49;79.60
67586;SHT31;55785;47.946;20.540;2023-12-22T03:14:36;6.40;79.65
67586;SHT31;55785;47.946;20.540;2023-12-22T03:17:02;6.31;80.20
67586;SHT31;55785;47.946;20.540;2023-12-22T03:19:28;6.34;79.09
67586;SHT31;55785;47.946;20.540;2023-12-22T03:21:53;6.34;79.52
67586;SHT31;55785;47.946;20.540;2023-12-22T03:24:19;6.28;79.72
67586;SHT31;55785;47.946;20.540;2023-12-22T03:26:45;6.27;78.48
67586;SHT31;55785;47.946;20.540;2023-12-22T03:29:11;6.21;78.68
67586;SHT31;55785;47.946;20.540;2023-12-22T03:31:36;6.16;79.06
67586;SHT31;55785;47.946;20.540;2023-12-22T03:34:02;6.13;78.99
67586;SHT31;55785;47.946;20.540;2023-12-22T03:36:27;6.10;79.07
67586;SHT31;55785;47.946;20.540;2023-12-22T03:38:52;6.04;79.02
67586;SHT31;55785;47.946;20.540;2023-12-22T03:41:18;6.00;79.26
67586;SHT31;55785;47.946;20.540;2023-12-22T03:43:43;5.96;79.45
67586;SHT31;55785;47.946;20.540;2023-12-22T03:46:08;5.89;79.34
67586;SHT31;55785;47.946;20.540;2023-12-22T03:48:34;5.89;79.24
67586;SHT31;55785;47.946;20.540;2023-12-22T03:50:59;5.89;78.91
67586;SHT31;55785;47.946;20.540;2023-12-22T03:53:24;5.90;78.94
67586;SHT31;55785;47.946;20.540;2023-12-22T03:55:50;5.82;79.35
67586;SHT31;55785;47.946;20.540;2023-12-22T03:58:15;5.76;79.59
67586;SHT31;55785;47.946;20.540;2023-12-22T04:00:40;5.69;79.70
67586;SHT31;55785;47.946;20.540;2023-12-22T04:03:06;5.63;79.25
67586;SHT31;55785;47.946;20.540;2023-12-22T04:05:31;5.69;78.54
67586;SHT31;55785;47.946;20.540;2023-12-22T04:07:56;5.62;79.66
67586;SHT31;55785;47.946;20.540;2023-12-22T04:10:22;5.56;79.50
67586;SHT31;55785;47.946;20.540;2023-12-22T04:12:47;5.52;78.89
67586;SHT31;55785;47.946;20.540;2023-12-22T04:15:13;5.52;78.78
67586;SHT31;55785;47.946;20.540;2023-12-22T04:17:38;5.55;78.46
67586;SHT31;55785;47.946;20.540;2023-12-22T04:20:05;5.53;77.96
67586;SHT31;55785;47.946;20.540;2023-12-22T04:22:31;5.55;78.16
67586;SHT31;55785;47.946;20.540;2023-12-22T04:24:56;5.53;78.35
67586;SHT31;55785;47.946;20.540;2023-12-22T04:27:21;5.51;78.17
67586;SHT31;55785;47.946;20.540;2023-12-22T04:29:47;5.46;78.48
67586;SHT31;55785;47.946;20.540;2023-12-22T04:32:12;5.45;77.92
67586;SHT31;55785;47.946;20.540;2023-12-22T04:34:37;5.49;78.28
67586;SHT31;55785;47.946;20.540;2023-12-22T04:37:03;5.49;78.65
67586;SHT31;55785;47.946;20.540;2023-12-22T04:39:28;5.38;79.05
67586;SHT31;55785;47.946;20.540;2023-12-22T04:41:53;5.34;78.16
67586;SHT31;55785;47.946;20.540;2023-12-22T04:44:19;5.38;78.08
67586;SHT31;55785;47.946;20.540;2023-12-22T04:46:44;5.32;77.74
67586;SHT31;55785;47.946;20.540;2023-12-22T04:49:09;5.35;77.04
67586;SHT31;55785;47.946;20.540;2023-12-22T04:51:35;5.34;76.86
67586;SHT31;55785;47.946;20.540;2023-12-22T04:54:00;5.32;77.08
67586;SHT31;55785;47.946;20.540;2023-12-22T04:56:26;5.21;77.67
67586;SHT31;55785;47.946;20.540;2023-12-22T04:58:51;5.11;77.96
67586;SHT31;55785;47.946;20.540;2023-12-22T05:01:17;5.05;78.29
67586;SHT31;55785;47.946;20.540;2023-12-22T05:03:42;5.01;77.77
67586;SHT31;55785;47.946;20.540;2023-12-22T05:06:07;5.05;77.44
67586;SHT31;55785;47.946;20.540;2023-12-22T05:08:33;5.03;77.22
67586;SHT31;55785;47.946;20.540;2023-12-22T05:10:59;5.05;76.92
67586;SHT31;55785;47.946;20.540;2023-12-22T05:13:24;5.01;77.16
67586;SHT31;55785;47.946;20.540;2023-12-22T05:15:49;5.05;75.48
67586;SHT31;55785;47.946;20.540;2023-12-22T05:18:15;5.10;75.65
67586;SHT31;55785;47.946;20.540;2023-12-22T05:20:40;5.01;75.69
67586;SHT31;55785;47.946;20.540;2023-12-22T05:23:05;4.95;75.98
67586;SHT31;55785;47.946;20.540;2023-12-22T05:25:31;4.98;74.81
67586;SHT31;55785;47.946;20.540;2023-12-22T05:27:56;5.00;74.52
67586;SHT31;55785;47.946;20.540;2023-12-22T05:30:22;5.00;74.53
67586;SHT31;55785;47.946;20.540;2023-12-22T05:32:47;4.91;74.74
67586;SHT31;55785;47.946;20.540;2023-12-22T05:35:13;4.87;75.21
67586;SHT31;55785;47.946;20.540;2023-12-22T05:37:38;4.83;75.29
67586;SHT31;55785;47.946;20.540;2023-12-22T05:40:05;4.79;75.28
67586;SHT31;55785;47.946;20.540;2023-12-22T05:42:30;4.73;75.26
67586;SHT31;55785;47.946;20.540;2023-12-22T05:44:55;4.70;75.21
67586;SHT31;55785;47.946;20.540;2023-12-22T05:47:21;4.66;75.20
67586;SHT31;55785;47.946;20.540;2023-12-22T05:49:46;4.67;75.09
67586;SHT31;55785;47.946;20.540;2023-12-22T05:52:12;4.56;75.95
67586;SHT31;55785;47.946;20.540;2023-12-22T05:54:38;4.44;76.35
67586;SHT31;55785;47.946;20.540;2023-12-22T05:57:03;4.48;76.32
67586;SHT31;55785;47.946;20.540;2023-12-22T05:59:29;4.44;76.30
67586;SHT31;55785;47.946;20.540;2023-12-22T06:01:54;4.46;76.04
67586;SHT31;55785;47.946;20.540;2023-12-22T06:04:19;4.49;76.15
67586;SHT31;55785;47.946;20.540;2023-12-22T06:06:45;4.46;76.66
67586;SHT31;55785;47.946;20.540;2023-12-22T06:09:10;4.36;77.20
67586;SHT31;55785;47.946;20.540;2023-12-22T06:11:36;4.29;76.81
67586;SHT31;55785;47.946;20.540;2023-12-22T06:14:01;4.31;76.86
67586;SHT31;55785;47.946;20.540;2023-12-22T06:16:26;4.29;76.93
67586;SHT31;55785;47.946;20.540;2023-12-22T06:18:52;4.22;77.36
67586;SHT31;55785;47.946;20.540;2023-12-22T06:21:17;4.15;77.39
67586;SHT31;55785;47.946;20.540;2023-12-22T06:23:42;4.17;77.44
67586;SHT31;55785;47.946;20.540;2023-12-22T06:26:09;4.18;77.04
67586;SHT31;55785;47.946;20.540;2023-12-22T06:28:34;4.14;77.10
67586;SHT31;55785;47.946;20.540;2023-12-22T06:30:59;4.12;77.18
67586;SHT31;55785;47.946;20.540;2023-12-22T06:33:25;4.12;77.30
67586;SHT31;55785;47.946;20.540;2023-12-22T06:35:50;4.09;77.39
67586;SHT31;55785;47.946;20.540;2023-12-22T06:38:16;4.01;77.82
67586;SHT31;55785;47.946;20.540;2023-12-22T06:40:41;3.97;78.21
67586;SHT31;55785;47.946;20.540;2023-12-22T06:43:06;4.02;78.45
67586;SHT31;55785;47.946;20.540;2023-12-22T06:45:32;4.04;78.67
67586;SHT31;55785;47.946;20.540;2023-12-22T06:47:57;3.99;78.77
67586;SHT31;55785;47.946;20.540;2023-12-22T06:50:22;3.99;79.12
67586;SHT31;55785;47.946;20.540;2023-12-22T06:52:48;3.99;78.83
67586;SHT31;55785;47.946;20.540;2023-12-22T06:55:13;3.95;79.31
67586;SHT31;55785;47.946;20.540;2023-12-22T06:57:38;3.93;79.46
67586;SHT31;55785;47.946;20.540;2023-12-22T07:00:04;3.97;79.60
67586;SHT31;55785;47.946;20.540;2023-12-22T07:02:30;3.88;80.06
67586;SHT31;55785;47.946;20.540;2023-12-22T07:05:02;3.91;79.93
67586;SHT31;55785;47.946;20.540;2023-12-22T07:07:28;3.93;80.23
67586;SHT31;55785;47.946;20.540;2023-12-22T07:09:53;3.93;79.60
67586;SHT31;55785;47.946;20.540;2023-12-22T07:12:18;3.97;79.75
67586;SHT31;55785;47.946;20.540;2023-12-22T07:14:44;3.99;79.06
67586;SHT31;55785;47.946;20.540;2023-12-22T07:17:09;4.04;79.09
67586;SHT31;55785;47.946;20.540;2023-12-22T07:19:34;4.07;79.20
67586;SHT31;55785;47.946;20.540;2023-12-22T07:22:00;4.12;78.54
67586;SHT31;55785;47.946;20.540;2023-12-22T07:24:25;4.12;78.96
67586;SHT31;55785;47.946;20.540;2023-12-22T07:26:50;4.14;78.91
67586;SHT31;55785;47.946;20.540;2023-12-22T07:29:16;4.18;78.83
67586;SHT31;55785;47.946;20.540;2023-12-22T07:31:41;4.18;78.78
67586;SHT31;55785;47.946;20.540;2023-12-22T07:34:06;4.21;78.87
67586;SHT31;55785;47.946;20.540;2023-12-22T07:36:32;4.26;78.41
67586;SHT31;55785;47.946;20.540;2023-12-22T07:38:57;4.29;77.83
67586;SHT31;55785;47.946;20.540;2023-12-22T07:41:22;4.36;77.65
67586;SHT31;55785;47.946;20.540;2023-12-22T07:43:48;4.36;77.78
67586;SHT31;55785;47.946;20.540;2023-12-22T07:46:17;4.39;77.04
67586;SHT31;55785;47.946;20.540;2023-12-22T07:48:43;4.41;77.34
67586;SHT31;55785;47.946;20.540;2023-12-22T07:51:08;4.46;76.78
67586;SHT31;55785;47.946;20.540;2023-12-22T07:53:35;4.48;76.69
67586;SHT31;55785;47.946;20.540;2023-12-22T07:56:00;4.50;76.13
67586;SHT31;55785;47.946;20.540;2023-12-22T07:58:27;4.53;75.97
67586;SHT31;55785;47.946;20.540;2023-12-22T08:00:52;4.55;75.47
67586;SHT31;55785;47.946;20.540;2023-12-22T08:03:17;4.59;75.72
67586;SHT31;55785;47.946;20.540;2023-12-22T08:05:43;4.60;75.19
67586;SHT31;55785;47.946;20.540;2023-12-22T08:08:08;4.65;74.39
67586;SHT31;55785;47.946;20.540;2023-12-22T08:10:33;4.73;74.13
67586;SHT31;55785;47.946;20.540;2023-12-22T08:12:59;4.72;74.10
67586;SHT31;55785;47.946;20.540;2023-12-22T08:15:25;4.72;73.97
67586;SHT31;55785;47.946;20.540;2023-12-22T08:17:51;4.76;74.64
67586;SHT31;55785;47.946;20.540;2023-12-22T08:20:20;4.76;73.74
67586;SHT31;55785;47.946;20.540;2023-12-22T08:22:46;4.80;73.15
67586;SHT31;55785;47.946;20.540;2023-12-22T08:25:13;4.84;73.27
67586;SHT31;55785;47.946;20.540;2023-12-22T08:27:39;4.88;72.88
67586;SHT31;55785;47.946;20.540;2023-12-22T08:30:05;4.88;72.20
67586;SHT31;55785;47.946;20.540;2023-12-22T08:32:30;4.97;71.90
67586;SHT31;55785;47.946;20.540;2023-12-22T08:34:56;5.04;71.45
67586;SHT31;55785;47.946;20.540;2023-12-22T08:37:21;5.08;70.51
67586;SHT31;55785;47.946;20.540;2023-12-22T08:39:46;5.04;70.53
67586;SHT31;55785;47.946;20.540;2023-12-22T08:42:12;5.11;70.24
67586;SHT31;55785;47.946;20.540;2023-12-22T08:44:37;5.11;70.05
67586;SHT31;55785;47.946;20.540;2023-12-22T08:47:03;5.18;69.77
67586;SHT31;55785;47.946;20.540;2023-12-22T08:49:29;5.20;69.69
67586;SHT31;55785;47.946;20.540;2023-12-22T08:51:54;5.17;69.29
67586;SHT31;55785;47.946;20.540;2023-12-22T08:54:19;5.18;69.72
67586;SHT31;55785;47.946;20.540;2023-12-22T08:56:45;5.25;69.29
67586;SHT31;55785;47.946;20.540;2023-12-22T08:59:10;5.25;69.26
67586;SHT31;55785;47.946;20.540;2023-12-22T09:01:35;5.27;68.67
67586;SHT31;55785;47.946;20.540;2023-12-22T09:04:01;5.30;69.19
67586;SHT31;55785;47.946;20.540;2023-12-22T09:06:26;5.32;69.08
67586;SHT31;55785;47.946;20.540;2023-12-22T09:08:51;5.32;68.30
67586;SHT31;55785;47.946;20.540;2023-12-22T09:11:18;5.28;69.22
67586;SHT31;55785;47.946;20.540;2023-12-22T09:13:45;5.36;69.79
67586;SHT31;55785;47.946;20.540;2023-12-22T09:16:11;5.41;68.51
67586;SHT31;55785;47.946;20.540;2023-12-22T09:18:37;5.46;68.49
67586;SHT31;55785;47.946;20.540;2023-12-22T09:21:02;5.52;68.01
67586;SHT31;55785;47.946;20.540;2023-12-22T09:23:28;5.49;67.97
67586;SHT31;55785;47.946;20.540;2023-12-22T09:25:54;5.48;69.33
67586;SHT31;55785;47.946;20.540;2023-12-22T09:28:20;5.56;68.86
67586;SHT31;55785;47.946;20.540;2023-12-22T09:30:45;5.53;67.61
67586;SHT31;55785;47.946;20.540;2023-12-22T09:33:11;5.62;67.78
67586;SHT31;55785;47.946;20.540;2023-12-22T09:35:36;5.62;67.53
67586;SHT31;55785;47.946;20.540;2023-12-22T09:38:02;5.62;67.38
67586;SHT31;55785;47.946;20.540;2023-12-22T09:40:28;5.66;68.04
67586;SHT31;55785;47.946;20.540;2023-12-22T09:42:57;5.69;68.17
67586;SHT31;55785;47.946;20.540;2023-12-22T09:45:23;5.67;66.95
67586;SHT31;55785;47.946;20.540;2023-12-22T09:47:50;5.69;67.07
67586;SHT31;55785;47.946;20.540;2023-12-22T09:50:15;5.73;67.29
67586;SHT31;55785;47.946;20.540;2023-12-22T09:52:44;5.77;66.27
67586;SHT31;55785;47.946;20.540;2023-12-22T09:55:10;5.79;66.53
67586;SHT31;55785;47.946;20.540;2023-12-22T09:57:35;5.89;65.38
67586;SHT31;55785;47.946;20.540;2023-12-22T10:00:03;5.90;65.49
67586;SHT31;55785;47.946;20.540;2023-12-22T10:02:30;5.93;64.94
67586;SHT31;55785;47.946;20.540;2023-12-22T10:04:56;5.93;64.73
67586;SHT31;55785;47.946;20.540;2023-12-22T10:07:22;5.97;64.21
67586;SHT31;55785;47.946;20.540;2023-12-22T10:09:47;5.97;64.53
67586;SHT31;55785;47.946;20.540;2023-12-22T10:12:16;6.06;64.28
67586;SHT31;55785;47.946;20.540;2023-12-22T10:14:44;6.10;63.90
67586;SHT31;55785;47.946;20.540;2023-12-22T10:17:09;6.14;63.49
67586;SHT31;55785;47.946;20.540;2023-12-22T10:19:35;6.16;63.37
67586;SHT31;55785;47.946;20.540;2023-12-22T10:22:00;6.18;63.31
67586;SHT31;55785;47.946;20.540;2023-12-22T10:24:44;6.28;63.41
67586;SHT31;55785;47.946;20.540;2023-12-22T10:27:11;6.25;62.74
67586;SHT31;55785;47.946;20.540;2023-12-22T10:29:36;6.24;62.63
67586;SHT31;55785;47.946;20.540;2023-12-22T10:32:03;6.21;63.41
67586;SHT31;55785;47.946;20.540;2023-12-22T10:34:29;6.22;63.82
67586;SHT31;55785;47.946;20.540;2023-12-22T10:36:55;6.18;63.18
67586;SHT31;55785;47.946;20.540;2023-12-22T10:39:21;6.18;63.24
67586;SHT31;55785;47.946;20.540;2023-12-22T10:41:46;6.18;63.65
67586;SHT31;55785;47.946;20.540;2023-12-22T10:44:13;6.27;63.27
67586;SHT31;55785;47.946;20.540;2023-12-22T10:46:38;6.31;63.11
67586;SHT31;55785;47.946;20.540;2023-12-22T10:49:04;6.28;62.55
67586;SHT31;55785;47.946;20.540;2023-12-22T10:51:29;6.24;62.67
67586;SHT31;55785;47.946;20.540;2023-12-22T10:53:54;6.27;62.74
67586;SHT31;55785;47.946;20.540;2023-12-22T10:56:20;6.31;62.39
67586;SHT31;55785;47.946;20.540;2023-12-22T10:58:46;6.37;62.43
67586;SHT31;55785;47.946;20.540;2023-12-22T11:01:14;6.45;62.82
67586;SHT31;55785;47.946;20.540;2023-12-22T11:03:44;6.55;61.97
67586;SHT31;55785;47.946;20.540;2023-12-22T11:06:12;6.59;62.56
67586;SHT31;55785;47.946;20.540;2023-12-22T11:08:40;6.69;63.08
67586;SHT31;55785;47.946;20.540;2023-12-22T11:11:16;6.64;63.41
67586;SHT31;55785;47.946;20.540;2023-12-22T11:13:43;6.72;64.19
67586;SHT31;55785;47.946;20.540;2023-12-22T11:16:09;6.99;64.82
67586;SHT31;55785;47.946;20.540;2023-12-22T11:18:35;7.31;63.65
67586;SHT31;55785;47.946;20.540;2023-12-22T11:21:05;7.59;62.47
67586;SHT31;55785;47.946;20.540;2023-12-22T11:23:31;8.14;61.64
67586;SHT31;55785;47.946;20.540;2023-12-22T11:25:59;8.54;60.21
67586;SHT31;55785;47.946;20.540;2023-12-22T11:28:26;8.64;61.07
67586;SHT31;55785;47.946;20.540;2023-12-22T11:30:52;8.57;61.61
67586;SHT31;55785;47.946;20.540;2023-12-22T11:33:19;8.58;60.14
67586;SHT31;55785;47.946;20.540;2023-12-22T11:35:46;8.16;60.28
67586;SHT31;55785;47.946;20.540;2023-12-22T11:38:13;7.74;61.59
67586;SHT31;55785;47.946;20.540;2023-12-22T11:40:39;7.83;61.60
67586;SHT31;55785;47.946;20.540;2023-12-22T11:43:05;8.05;61.74
67586;SHT31;55785;47.946;20.540;2023-12-22T11:45:32;8.48;61.32
67586;SHT31;55785;47.946;20.540;2023-12-22T11:48:05;8.54;60.31
67586;SHT31;55785;47.946;20.540;2023-12-22T11:50:31;7.68;62.36
67586;SHT31;55785;47.946;20.540;2023-12-22T11:52:56;7.78;62.04
67586;SHT31;55785;47.946;20.540;2023-12-22T11:58:42;7.38;62.51
67586;SHT31;55785;47.946;20.540;2023-12-22T12:01:09;7.20;62.36
67586;SHT31;55785;47.946;20.540;2023-12-22T12:04:01;6.75;63.82
67586;SHT31;55785;47.946;20.540;2023-12-22T12:08:53;6.37;64.84
67586;SHT31;55785;47.946;20.540;2023-12-22T12:11:19;6.10;65.83
67586;SHT31;55785;47.946;20.540;2023-12-22T12:13:45;5.99;65.78
67586;SHT31;55785;47.946;20.540;2023-12-22T12:16:16;5.94;65.65
67586;SHT31;55785;47.946;20.540;2023-12-22T12:18:44;5.87;65.87
67586;SHT31;55785;47.946;20.540;2023-12-22T12:21:10;5.73;67.06
67586;SHT31;55785;47.946;20.540;2023-12-22T12:23:36;5.77;66.69
67586;SHT31;55785;47.946;20.540;2023-12-22T12:26:02;5.79;67.42
67586;SHT31;55785;47.946;20.540;2023-12-22T12:28:33;5.83;68.22
67586;SHT31;55785;47.946;20.540;2023-12-22T12:31:00;5.87;69.39
67586;SHT31;55785;47.946;20.540;2023-12-22T12:33:26;5.76;70.10
67586;SHT31;55785;47.946;20.540;2023-12-22T12:35:59;5.58;70.80
67586;SHT31;55785;47.946;20.540;2023-12-22T12:41:04;5.28;72.00
67586;SHT31;55785;47.946;20.540;2023-12-22T12:43:29;5.08;72.53
67586;SHT31;55785;47.946;20.540;2023-12-22T12:45:54;4.91;73.28
67586;SHT31;55785;47.946;20.540;2023-12-22T12:48:21;4.86;73.24
67586;SHT31;55785;47.946;20.540;2023-12-22T12:50:46;4.94;73.18
67586;SHT31;55785;47.946;20.540;2023-12-22T12:53:11;4.98;72.97
67586;SHT31;55785;47.946;20.540;2023-12-22T12:55:37;5.03;72.82
67586;SHT31;55785;47.946;20.540;2023-12-22T12:58:03;5.04;72.44
67586;SHT31;55785;47.946;20.540;2023-12-22T13:00:33;5.03;72.48
67586;SHT31;55785;47.946;20.540;2023-12-22T13:03:05;5.10;72.76
67586;SHT31;55785;47.946;20.540;2023-12-22T13:05:31;5.10;72.08
67586;SHT31;55785;47.946;20.540;2023-12-22T13:08:10;5.07;70.89
67586;SHT31;55785;47.946;20.540;2023-12-22T13:10:36;5.14;68.69
67586;SHT31;55785;47.946;20.540;2023-12-22T13:13:01;5.17;69.41
67586;SHT31;55785;47.946;20.540;2023-12-22T13:15:27;5.23;68.51
67586;SHT31;55785;47.946;20.540;2023-12-22T13:17:52;5.25;69.05
67586;SHT31;55785;47.946;20.540;2023-12-22T13:20:18;5.24;68.07
67586;SHT31;55785;47.946;20.540;2023-12-22T13:22:44;5.27;68.34
67586;SHT31;55785;47.946;20.540;2023-12-22T13:25:09;5.21;68.16
67586;SHT31;55785;47.946;20.540;2023-12-22T13:27:48;5.08;68.14
67586;SHT31;55785;47.946;20.540;2023-12-22T13:30:36;5.01;68.73
67586;SHT31;55785;47.946;20.540;2023-12-22T13:33:02;4.93;69.40
67586;SHT31;55785;47.946;20.540;2023-12-22T13:35:27;4.90;69.79
67586;SHT31;55785;47.946;20.540;2023-12-22T13:37:53;4.81;70.48
67586;SHT31;55785;47.946;20.540;2023-12-22T13:40:19;4.77;71.08
67586;SHT31;55785;47.946;20.540;2023-12-22T13:42:44;4.74;70.62
67586;SHT31;55785;47.946;20.540;2023-12-22T13:45:10;4.70;71.60
67586;SHT31;55785;47.946;20.540;2023-12-22T13:47:40;4.62;71.98
67586;SHT31;55785;47.946;20.540;2023-12-22T13:50:13;4.57;72.27
67586;SHT31;55785;47.946;20.540;2023-12-22T13:52:38;4.59;72.41
67586;SHT31;55785;47.946;20.540;2023-12-22T13:55:14;4.57;72.20
67586;SHT31;55785;47.946;20.540;2023-12-22T13:57:40;4.60;72.60
67586;SHT31;55785;47.946;20.540;2023-12-22T14:02:46;4.67;72.78
67586;SHT31;55785;47.946;20.540;2023-12-22T14:05:12;4.66;73.04
67586;SHT31;55785;47.946;20.540;2023-12-22T14:07:37;4.66;73.50
67586;SHT31;55785;47.946;20.540;2023-12-22T14:10:09;4.66;73.15
67586;SHT31;55785;47.946;20.540;2023-12-22T14:12:35;4.70;73.55
67586;SHT31;55785;47.946;20.540;2023-12-22T14:15:00;4.72;72.95
67586;SHT31;55785;47.946;20.540;2023-12-22T14:17:27;4.63;72.91
67586;SHT31;55785;47.946;20.540;2023-12-22T14:19:52;4.53;72.72
67586;SHT31;55785;47.946;20.540;2023-12-22T14:22:17;4.41;72.86
67586;SHT31;55785;47.946;20.540;2023-12-22T14:24:43;4.34;72.81
67586;SHT31;55785;47.946;20.540;2023-12-22T14:27:09;4.28;72.52
67586;SHT31;55785;47.946;20.540;2023-12-22T14:29:34;4.25;72.21
67586;SHT31;55785;47.946;20.540;2023-12-22T14:31:59;4.25;71.54
67586;SHT31;55785;47.946;20.540;2023-12-22T14:34:25;4.31;70.66
67586;SHT31;55785;47.946;20.540;2023-12-22T14:36:50;4.32;71.07
67586;SHT31;55785;47.946;20.540;2023-12-22T14:39:15;4.21;72.30
67586;SHT31;55785;47.946;20.540;2023-12-22T14:41:41;4.12;72.24
67586;SHT31;55785;47.946;20.540;2023-12-22T14:44:06;4.15;71.43
67586;SHT31;55785;47.946;20.540;2023-12-22T14:46:32;4.12;71.93
67586;SHT31;55785;47.946;20.540;2023-12-22T14:48:58;4.08;72.35
67586;SHT31;55785;47.946;20.540;2023-12-22T14:51:23;3.99;72.70
67586;SHT31;55785;47.946;20.540;2023-12-22T14:53:48;3.97;73.15
67586;SHT31;55785;47.946;20.540;2023-12-22T14:56:14;3.90;73.97
67586;SHT31;55785;47.946;20.540;2023-12-22T14:58:39;3.88;73.69
67586;SHT31;55785;47.946;20.540;2023-12-22T15:01:04;3.90;73.46
67586;SHT31;55785;47.946;20.540;2023-12-22T15:03:30;3.83;74.39
67586;SHT31;55785;47.946;20.540;2023-12-22T15:05:55;3.78;74.71
67586;SHT31;55785;47.946;20.540;2023-12-22T15:08:20;3.74;75.27
67586;SHT31;55785;47.946;20.540;2023-12-22T15:10:46;3.73;75.05
67586;SHT31;55785;47.946;20.540;2023-12-22T15:13:11;3.73;75.45
67586;SHT31;55785;47.946;20.540;2023-12-22T15:15:36;3.69;75.65
67586;SHT31;55785;47.946;20.540;2023-12-22T15:18:02;3.64;76.15
67586;SHT31;55785;47.946;20.540;2023-12-22T15:20:27;3.57;76.48
67586;SHT31;55785;47.946;20.540;2023-12-22T15:22:53;3.59;76.36
67586;SHT31;55785;47.946;20.540;2023-12-22T15:25:18;3.59;76.09
67586;SHT31;55785;47.946;20.540;2023-12-22T15:27:43;3.59;75.95
67586;SHT31;55785;47.946;20.540;2023-12-22T15:30:09;3.53;76.40
67586;SHT31;55785;47.946;20.540;2023-12-22T15:32:34;3.55;76.38
67586;SHT31;55785;47.946;20.540;2023-12-22T15:35:00;3.55;76.46